createdAt,value
2023-05-25T00:00:15.961Z,0.88715
2023-05-25T00:05:17.392Z,0
2023-05-25T00:10:19.708Z,0.88715
2023-05-25T00:15:21.261Z,0
2023-05-25T00:20:22.713Z,0.88715
2023-05-25T00:25:24.054Z,0.88715
2023-05-25T00:30:25.756Z,0
2023-05-25T00:35:27.241Z,0
2023-05-25T00:40:28.732Z,0.88715
2023-05-25T00:45:30.260Z,0
2023-05-25T00:50:31.671Z,0
2023-05-25T00:55:33.130Z,0.88715
2023-05-25T01:00:34.744Z,0
2023-05-25T01:05:36.021Z,0
2023-05-25T01:10:37.442Z,0
2023-05-25T01:15:39.103Z,0
2023-05-25T01:20:40.432Z,0
2023-05-25T01:25:41.929Z,0
2023-05-25T01:30:43.670Z,0
2023-05-25T01:35:45.240Z,0
2023-05-25T01:40:46.869Z,0
2023-05-25T01:45:48.343Z,0
2023-05-25T01:50:49.797Z,0
2023-05-25T01:55:51.229Z,0
2023-05-25T02:00:52.873Z,0
2023-05-25T02:05:54.318Z,0
2023-05-25T02:10:55.773Z,0
2023-05-25T02:15:57.374Z,0
2023-05-25T02:20:58.838Z,0.88715
2023-05-25T02:26:00.260Z,0
2023-05-25T02:31:01.927Z,0
2023-05-25T02:36:03.322Z,0
2023-05-25T02:41:04.752Z,0
2023-05-25T02:46:06.422Z,0
2023-05-25T02:51:07.877Z,0
2023-05-25T02:56:09.348Z,0.88715
2023-05-25T03:01:11.058Z,0
2023-05-25T03:06:12.603Z,0
2023-05-25T03:11:14.081Z,0
2023-05-25T03:16:15.729Z,0.88715
2023-05-25T03:21:17.107Z,0
2023-05-25T03:26:18.717Z,0
2023-05-25T03:31:20.225Z,0.88715
2023-05-25T03:36:21.822Z,0.88715
2023-05-25T03:41:23.764Z,0
2023-05-25T03:46:25.543Z,0
2023-05-25T03:51:27.052Z,0
2023-05-25T03:56:28.999Z,0
2023-05-25T04:01:30.374Z,0.88715
2023-05-25T04:06:31.864Z,0.88715
2023-05-25T04:11:33.512Z,0.88715
2023-05-25T04:16:35.178Z,0.88715
2023-05-25T04:21:36.475Z,1.16185
2023-05-25T04:26:37.993Z,1.3463
2023-05-25T04:31:39.679Z,3.85445
2023-05-25T04:36:41.201Z,3.4304
2023-05-25T04:41:42.608Z,9.60855
2023-05-25T04:46:44.065Z,17.31745
2023-05-25T04:51:45.561Z,30.8356
2023-05-25T04:56:46.888Z,48.4478
2023-05-25T05:01:49.138Z,68.19925
2023-05-25T05:06:50.611Z,87.9507
2023-05-25T05:11:52.430Z,109.65695
2023-05-25T05:16:53.929Z,127.0847
2023-05-25T05:21:55.585Z,148.6065
2023-05-25T05:26:58.870Z,162.5487
2023-05-25T05:32:00.971Z,176.4909
2023-05-25T05:37:02.707Z,193.31015
2023-05-25T05:42:04.027Z,201.38795
2023-05-25T05:47:05.854Z,207.14205
2023-05-25T05:52:07.744Z,228.6087
2023-05-25T05:57:09.210Z,232.96135
2023-05-25T06:02:10.977Z,249.4117
2023-05-25T06:07:12.354Z,262.7454
2023-05-25T06:12:14.097Z,279.69395
2023-05-25T06:17:15.559Z,305.51325
2023-05-25T06:22:17.237Z,327.29365
2023-05-25T06:27:18.738Z,345.90225
2023-05-25T06:32:20.497Z,411.5382
2023-05-25T06:37:22.268Z,479.14795
2023-05-25T06:42:23.749Z,529.754
2023-05-25T06:47:25.258Z,582.8682
2023-05-25T06:52:27.133Z,593.7869
2023-05-25T06:57:28.902Z,599.56
2023-05-25T07:02:30.813Z,603.43345
2023-05-25T07:07:32.426Z,614.5176
2023-05-25T07:12:34.043Z,630.00955
2023-05-25T07:17:36.195Z,649.4111
2023-05-25T07:22:37.953Z,668.6282
2023-05-25T07:27:39.821Z,688.2142
2023-05-25T07:32:41.877Z,707.98465
2023-05-25T07:37:43.298Z,737.6584
2023-05-25T07:42:45.094Z,777.1803
2023-05-25T07:47:47.204Z,790.0348
2023-05-25T07:57:59.028Z,827.43645
2023-05-25T08:03:00.773Z,849.47545
2023-05-25T08:08:02.343Z,876.5859
2023-05-25T08:13:04.398Z,921.2534
2023-05-25T08:18:06.270Z,923.54095
2023-05-25T08:23:07.657Z,941.90995
2023-05-25T08:28:09.169Z,961.939
2023-05-25T08:33:10.862Z,976.7673
2023-05-25T08:38:12.358Z,1007.67705
2023-05-25T08:43:13.822Z,1033.6998
2023-05-25T08:48:23.955Z,1045.227
2023-05-25T08:53:37.894Z,1059.02275
2023-05-25T08:58:39.791Z,1097.58625
2023-05-25T09:03:41.729Z,1108.87385
2023-05-25T09:08:43.612Z,1139.9129
2023-05-25T09:13:45.202Z,1156.5857
2023-05-25T09:18:46.832Z,1170.8055
2023-05-25T09:23:48.348Z,1191.9964
2023-05-25T09:28:49.632Z,1201.9377
2023-05-25T09:33:51.343Z,1214.25785
2023-05-25T09:38:53.169Z,1250.73725
2023-05-25T09:44:06.701Z,1262.9281
2023-05-25T09:49:11.907Z,1243.67485
2023-05-25T09:54:13.623Z,1322.86695
2023-05-25T09:59:15.520Z,1252.4733
2023-05-25T10:04:17.419Z,1343.09945
2023-05-25T10:09:19.082Z,1365.63665
2023-05-25T10:14:20.623Z,1389.00295
2023-05-25T10:19:22.212Z,1425.85125
2023-05-25T10:24:23.730Z,1434.53755
2023-05-25T10:29:25.317Z,1482.26655
2023-05-25T10:34:26.607Z,1550.19005
2023-05-25T10:39:28.172Z,1562.6015
2023-05-25T10:44:29.845Z,1617.043
2023-05-25T10:49:31.632Z,1589.69295
2023-05-25T10:54:33.261Z,1605.8124
2023-05-25T10:59:35.619Z,1607.69305
2023-05-25T11:04:37.433Z,1627.3342
2023-05-25T11:09:39.448Z,1526.28755
2023-05-25T11:14:41.352Z,1597.0501
2023-05-25T11:19:43.132Z,1749.01655
2023-05-25T11:24:44.911Z,1699.2776
2023-05-25T11:29:46.858Z,1698.83455
2023-05-25T11:34:48.171Z,1776.51305
2023-05-25T11:39:49.631Z,1772.95335
2023-05-25T11:44:51.466Z,1726.77225
2023-05-25T11:49:53.160Z,1789.2174
2023-05-25T11:54:54.823Z,1782.2083
2023-05-25T11:59:56.833Z,1772.8222
2023-05-25T12:04:58.720Z,1815.53305
2023-05-25T12:10:00.537Z,1814.03845
2023-05-25T12:15:02.205Z,1813.835
2023-05-25T12:20:03.972Z,1813.4281
2023-05-25T12:25:05.697Z,1824.5484
2023-05-25T12:30:07.475Z,1865.45275
2023-05-25T12:35:09.015Z,1824.08635
2023-05-25T12:40:10.769Z,1804.3349
2023-05-25T12:45:12.484Z,1764.84915
2023-05-25T12:50:14.095Z,1724.33085
2023-05-25T12:55:16.007Z,1724.0171
2023-05-25T13:00:17.516Z,1698.51155
2023-05-25T13:05:19.227Z,1691.39215
2023-05-25T13:10:20.976Z,1680.0494
2023-05-25T13:15:22.516Z,1636.54375
2023-05-25T13:20:24.112Z,1568.63925
2023-05-25T13:25:25.575Z,1540.5324
2023-05-25T13:30:27.449Z,1525.53865
2023-05-25T13:35:28.768Z,1425.19365
2023-05-25T13:40:30.601Z,1284.4615
2023-05-25T13:45:32.366Z,1220.08055
2023-05-25T13:50:34.114Z,1142.23475
2023-05-25T13:55:37.312Z,1046.0941
2023-05-25T14:00:40.257Z,1038.95755
2023-05-25T14:05:42.094Z,960.3378
2023-05-25T14:10:43.925Z,840.5551
2023-05-25T14:15:45.763Z,737.70195
2023-05-25T14:20:47.713Z,600.9707
2023-05-25T14:25:49.343Z,452.7674
2023-05-25T14:30:50.964Z,330.64015
2023-05-25T14:35:52.647Z,279.40475
2023-05-25T14:40:54.446Z,234.9027
2023-05-25T14:45:56.091Z,203.6982
2023-05-25T14:50:57.893Z,176.1447
2023-05-25T14:55:59.783Z,130.0206
2023-05-25T15:01:01.532Z,109.6778
2023-05-25T15:06:03.270Z,88.4869
2023-05-25T15:11:05.199Z,60.52835
2023-05-25T15:16:06.907Z,44.61235
2023-05-25T15:21:08.802Z,31.5734
2023-05-25T15:26:10.789Z,15.36265
2023-05-25T15:31:12.552Z,7.65375
2023-05-25T15:36:14.408Z,3.3184
2023-05-25T15:41:16.052Z,1.42215
2023-05-25T15:46:17.785Z,2.3237
2023-05-25T15:51:19.607Z,0
2023-05-25T15:56:20.949Z,0.88715
2023-05-25T16:01:22.387Z,0.88715
2023-05-25T16:06:24.097Z,0
2023-05-25T16:11:25.557Z,0
2023-05-25T16:16:27.058Z,0
2023-05-25T16:21:28.753Z,0
2023-05-25T16:26:30.309Z,0.88715
2023-05-25T16:31:31.808Z,0
2023-05-25T16:36:33.430Z,0
2023-05-25T16:41:34.934Z,0.88715
2023-05-25T16:46:36.329Z,0
2023-05-25T16:51:38.061Z,0
2023-05-25T16:56:39.403Z,0
2023-05-25T17:01:40.913Z,0
2023-05-25T17:06:42.403Z,0
2023-05-25T17:11:43.880Z,0
2023-05-25T17:16:45.544Z,0.88715
2023-05-25T17:21:47.240Z,0.88715
2023-05-25T17:26:48.712Z,0
2023-05-25T17:31:50.586Z,0
2023-05-25T17:36:52.351Z,0.88715
2023-05-25T17:41:53.722Z,0
2023-05-25T17:46:55.686Z,0
2023-05-25T17:51:57.273Z,0
2023-05-25T17:56:58.660Z,0
2023-05-25T18:02:00.249Z,0
2023-05-25T18:07:01.986Z,0
2023-05-25T18:12:03.309Z,0
2023-05-25T18:17:04.841Z,0.88715
2023-05-25T18:22:06.395Z,0
2023-05-25T18:27:07.908Z,0.88715
2023-05-25T18:32:09.746Z,0
2023-05-25T18:37:11.332Z,0
2023-05-25T18:42:13.008Z,0
2023-05-25T18:47:15.169Z,0
2023-05-25T18:52:16.996Z,0
2023-05-25T18:57:18.630Z,0.88715
2023-05-25T19:02:20.600Z,0.88715
2023-05-25T19:07:21.987Z,0
2023-05-25T19:12:23.484Z,0
2023-05-25T19:17:25.007Z,0
2023-05-25T19:22:26.328Z,0
2023-05-25T19:27:27.825Z,0.88715
2023-05-25T19:32:29.447Z,0
2023-05-25T19:37:30.793Z,0
2023-05-25T19:42:32.276Z,0.88715
2023-05-25T19:47:33.912Z,0
2023-05-25T19:52:35.468Z,0
2023-05-25T19:57:36.880Z,0
2023-05-25T20:02:38.279Z,0
2023-05-25T20:07:39.848Z,0
2023-05-25T20:12:41.277Z,0
2023-05-25T20:17:42.954Z,0
2023-05-25T20:22:44.511Z,0
2023-05-25T20:27:45.988Z,0
2023-05-25T20:32:47.545Z,0.88715
2023-05-25T20:37:48.942Z,0
2023-05-25T20:42:50.450Z,0
2023-05-25T20:47:52.376Z,0
2023-05-25T20:52:53.836Z,0
2023-05-25T20:57:55.111Z,0.88715
2023-05-25T21:02:56.803Z,0.88715
2023-05-25T21:07:58.400Z,0
2023-05-25T21:12:59.823Z,0
2023-05-25T21:18:01.248Z,0
2023-05-25T21:23:02.674Z,0
2023-05-25T21:28:04.132Z,0
2023-05-25T21:33:05.930Z,0
2023-05-25T21:38:07.559Z,0.88715
2023-05-25T21:43:09.007Z,0
2023-05-25T21:48:10.539Z,0
2023-05-25T21:53:12.028Z,0
2023-05-25T21:58:13.686Z,0
2023-05-25T22:03:15.375Z,0
2023-05-25T22:08:17.212Z,0
2023-05-25T22:13:18.528Z,0
2023-05-25T22:18:20.147Z,0
2023-05-25T22:23:21.650Z,0
2023-05-25T22:28:23.078Z,0
2023-05-25T22:33:24.585Z,0
2023-05-25T22:38:26.072Z,0
2023-05-25T22:43:27.379Z,0
2023-05-25T22:48:28.873Z,0.88715
2023-05-25T22:53:30.573Z,0
2023-05-25T22:58:31.848Z,0
2023-05-25T23:03:33.260Z,0
2023-05-25T23:08:34.910Z,0
2023-05-25T23:13:36.179Z,0
2023-05-25T23:18:37.498Z,0
2023-05-25T23:23:38.989Z,0
2023-05-25T23:28:40.352Z,0.88715
2023-05-25T23:33:42.198Z,0
2023-05-25T23:38:44.022Z,0
2023-05-25T23:43:45.696Z,0
2023-05-25T23:48:47.565Z,0
2023-05-25T23:53:49.381Z,0
2023-05-25T23:58:51.166Z,0
